This is the latest recevied weather packets stored in our database for station/object KE8WAY. If no packets are shown the sender has not sent any weather packets the latest 10 day(s).
| Time | Temp. | Humidity | Pressure | Rain* | Wind** | Luminosity | Snow |
|---|---|---|---|---|---|---|---|
| 1777503301 | 8.89° C | 87% | 1010.4 hPa | 0 mm | - | 17 W/m² | - |
| 1777502997 | 8.89° C | 87% | 1010.3 hPa | 0 mm | - | 10 W/m² | - |
| 1777502695 | 8.89° C | 87% | 1010.2 hPa | 0 mm | - | 14 W/m² | - |
| 1777502391 | 8.89° C | 87% | 1010.1 hPa | 0 mm | - | 24 W/m² | - |
| 1777502088 | 8.89° C | 88% | 1010.3 hPa | 0 mm | - | 25 W/m² | - |
| 1777501785 | 8.89° C | 87% | 1010.3 hPa | 0 mm | - | 26 W/m² | - |
| 1777501483 | 8.89° C | 86% | 1010.2 hPa | 0 mm | - | 41 W/m² | - |
| 1777501179 | 8.89° C | 87% | 1010.2 hPa | 0 mm | - | 32 W/m² | - |
| 1777500878 | 9.44° C | 89% | 1010.3 hPa | 0 mm | - | 26 W/m² | - |
| 1777500575 | 9.44° C | 89% | 1010.2 hPa | 0 mm | - | 58 W/m² | - |
| 1777500271 | 8.89° C | 89% | 1010.3 hPa | 0 mm | - | 71 W/m² | - |
| 1777499968 | 8.89° C | 89% | 1010 hPa | 0 mm | - | 87 W/m² | - |
| 1777499665 | 8.89° C | 89% | 1010.1 hPa | 1.78 mm | - | 76 W/m² | - |
| 1777499361 | 8.89° C | 89% | 1009.8 hPa | 1.78 mm | - | 148 W/m² | - |
| 1777499060 | 9.44° C | 87% | 1010.1 hPa | 0 mm | - | 83 W/m² | - |
| 1777498756 | 9.44° C | 85% | 1010.3 hPa | 0 mm | - | 24 W/m² | - |
| 1777498452 | 10° C | 84% | 1010.1 hPa | 0 mm | - | 26 W/m² | - |
| 1777498149 | 10° C | 83% | 1009.9 hPa | 0 mm | - | 24 W/m² | - |
| 1777497847 | 10° C | 82% | 1009.9 hPa | 0 mm | - | 50 W/m² | - |
| 1777497542 | 10° C | 82% | 1009.9 hPa | 0 mm | - | 98 W/m² | - |
| 1777497239 | 10° C | 82% | 1009.9 hPa | 0 mm | - | 93 W/m² | - |
| 1777496936 | 10° C | 82% | 1009.7 hPa | 0 mm | - | 170 W/m² | - |
| 1777496633 | 10° C | 81% | 1009.9 hPa | 0 mm | - | 76 W/m² | - |
| 1777496329 | 10° C | 82% | 1009.8 hPa | 0 mm | - | 73 W/m² | - |
| 1777496024 | 10° C | 83% | 1009.7 hPa | 0 mm | - | 76 W/m² | - |
* Rain latest hour (hover to see other rain measurements)
** Current wind speed in m/s (hover to see current wind gust speed)